sensor_id;sensor_type;location;lat;lon;timestamp;P1;durP1;ratioP1;P2;durP2;ratioP2
58898;SDS011;44680;48.342;7.856;2023-04-19T00:00:37;15.00;;;8.45;;
58898;SDS011;44680;48.342;7.856;2023-04-19T00:03:02;15.15;;;8.38;;
58898;SDS011;44680;48.342;7.856;2023-04-19T00:05:29;15.70;;;8.55;;
58898;SDS011;44680;48.342;7.856;2023-04-19T00:07:54;14.93;;;8.55;;
58898;SDS011;44680;48.342;7.856;2023-04-19T00:10:19;17.25;;;8.88;;
58898;SDS011;44680;48.342;7.856;2023-04-19T00:12:45;14.55;;;8.48;;
58898;SDS011;44680;48.342;7.856;2023-04-19T00:15:10;12.68;;;8.02;;
58898;SDS011;44680;48.342;7.856;2023-04-19T00:17:36;13.98;;;8.27;;
58898;SDS011;44680;48.342;7.856;2023-04-19T00:20:01;15.35;;;8.00;;
58898;SDS011;44680;48.342;7.856;2023-04-19T00:22:27;13.55;;;8.10;;
58898;SDS011;44680;48.342;7.856;2023-04-19T00:24:53;12.30;;;7.57;;
58898;SDS011;44680;48.342;7.856;2023-04-19T00:27:18;14.70;;;8.00;;
58898;SDS011;44680;48.342;7.856;2023-04-19T00:29:43;13.85;;;8.07;;
58898;SDS011;44680;48.342;7.856;2023-04-19T00:32:09;14.05;;;7.95;;
58898;SDS011;44680;48.342;7.856;2023-04-19T00:34:35;14.88;;;8.48;;
58898;SDS011;44680;48.342;7.856;2023-04-19T00:37:00;13.98;;;8.48;;
58898;SDS011;44680;48.342;7.856;2023-04-19T00:39:25;17.13;;;9.02;;
58898;SDS011;44680;48.342;7.856;2023-04-19T00:41:51;14.93;;;8.68;;
58898;SDS011;44680;48.342;7.856;2023-04-19T00:44:17;15.00;;;8.02;;
58898;SDS011;44680;48.342;7.856;2023-04-19T00:46:42;14.60;;;8.35;;
58898;SDS011;44680;48.342;7.856;2023-04-19T00:49:08;16.58;;;8.40;;
58898;SDS011;44680;48.342;7.856;2023-04-19T00:51:33;14.88;;;8.07;;
58898;SDS011;44680;48.342;7.856;2023-04-19T00:53:58;16.52;;;8.27;;
58898;SDS011;44680;48.342;7.856;2023-04-19T00:56:24;13.10;;;8.15;;
58898;SDS011;44680;48.342;7.856;2023-04-19T00:58:52;16.25;;;8.43;;
58898;SDS011;44680;48.342;7.856;2023-04-19T01:01:17;13.98;;;8.43;;
58898;SDS011;44680;48.342;7.856;2023-04-19T01:03:43;12.88;;;8.02;;
58898;SDS011;44680;48.342;7.856;2023-04-19T01:06:09;16.27;;;8.30;;
58898;SDS011;44680;48.342;7.856;2023-04-19T01:08:35;11.40;;;7.57;;
58898;SDS011;44680;48.342;7.856;2023-04-19T01:11:00;14.27;;;8.15;;
58898;SDS011;44680;48.342;7.856;2023-04-19T01:13:25;17.00;;;8.80;;
58898;SDS011;44680;48.342;7.856;2023-04-19T01:15:51;14.90;;;7.85;;
58898;SDS011;44680;48.342;7.856;2023-04-19T01:18:17;13.23;;;7.88;;
58898;SDS011;44680;48.342;7.856;2023-04-19T01:20:43;13.43;;;8.52;;
58898;SDS011;44680;48.342;7.856;2023-04-19T01:23:08;15.05;;;8.70;;
58898;SDS011;44680;48.342;7.856;2023-04-19T01:25:35;12.57;;;7.82;;
58898;SDS011;44680;48.342;7.856;2023-04-19T01:28:01;16.02;;;8.50;;
58898;SDS011;44680;48.342;7.856;2023-04-19T01:30:26;14.48;;;8.02;;
58898;SDS011;44680;48.342;7.856;2023-04-19T01:32:52;14.63;;;8.13;;
58898;SDS011;44680;48.342;7.856;2023-04-19T01:35:17;14.63;;;8.90;;
58898;SDS011;44680;48.342;7.856;2023-04-19T01:37:42;15.40;;;9.05;;
58898;SDS011;44680;48.342;7.856;2023-04-19T01:40:08;18.08;;;9.82;;
58898;SDS011;44680;48.342;7.856;2023-04-19T01:42:33;17.58;;;10.48;;
58898;SDS011;44680;48.342;7.856;2023-04-19T01:44:59;17.45;;;10.50;;
58898;SDS011;44680;48.342;7.856;2023-04-19T01:47:25;18.05;;;10.55;;
58898;SDS011;44680;48.342;7.856;2023-04-19T01:49:51;20.23;;;10.65;;
58898;SDS011;44680;48.342;7.856;2023-04-19T01:52:16;18.77;;;10.77;;
58898;SDS011;44680;48.342;7.856;2023-04-19T01:54:41;18.17;;;10.75;;
58898;SDS011;44680;48.342;7.856;2023-04-19T01:57:07;20.73;;;11.55;;
58898;SDS011;44680;48.342;7.856;2023-04-19T01:59:32;19.23;;;10.32;;
58898;SDS011;44680;48.342;7.856;2023-04-19T02:01:57;20.85;;;11.30;;
58898;SDS011;44680;48.342;7.856;2023-04-19T02:04:22;19.63;;;10.63;;
58898;SDS011;44680;48.342;7.856;2023-04-19T02:06:48;18.70;;;10.35;;
58898;SDS011;44680;48.342;7.856;2023-04-19T02:09:13;21.27;;;11.70;;
58898;SDS011;44680;48.342;7.856;2023-04-19T02:11:38;17.80;;;10.85;;
58898;SDS011;44680;48.342;7.856;2023-04-19T02:14:04;20.10;;;10.70;;
58898;SDS011;44680;48.342;7.856;2023-04-19T02:16:29;19.25;;;11.00;;
58898;SDS011;44680;48.342;7.856;2023-04-19T02:18:54;19.63;;;11.02;;
58898;SDS011;44680;48.342;7.856;2023-04-19T02:21:20;22.00;;;11.52;;
58898;SDS011;44680;48.342;7.856;2023-04-19T02:23:45;17.88;;;10.25;;
58898;SDS011;44680;48.342;7.856;2023-04-19T02:26:10;22.52;;;11.55;;
58898;SDS011;44680;48.342;7.856;2023-04-19T02:28:37;19.35;;;11.18;;
58898;SDS011;44680;48.342;7.856;2023-04-19T02:31:04;19.20;;;11.00;;
58898;SDS011;44680;48.342;7.856;2023-04-19T02:33:30;20.65;;;11.73;;
58898;SDS011;44680;48.342;7.856;2023-04-19T02:35:55;18.90;;;11.10;;
58898;SDS011;44680;48.342;7.856;2023-04-19T02:38:20;18.77;;;11.05;;
58898;SDS011;44680;48.342;7.856;2023-04-19T02:40:46;19.25;;;11.10;;
58898;SDS011;44680;48.342;7.856;2023-04-19T02:43:11;20.13;;;11.52;;
58898;SDS011;44680;48.342;7.856;2023-04-19T02:45:36;20.33;;;11.45;;
58898;SDS011;44680;48.342;7.856;2023-04-19T02:48:01;19.80;;;11.75;;
58898;SDS011;44680;48.342;7.856;2023-04-19T02:50:27;20.65;;;11.40;;
58898;SDS011;44680;48.342;7.856;2023-04-19T02:52:52;19.98;;;10.80;;
58898;SDS011;44680;48.342;7.856;2023-04-19T02:55:17;19.65;;;11.27;;
58898;SDS011;44680;48.342;7.856;2023-04-19T02:57:43;18.15;;;9.80;;
58898;SDS011;44680;48.342;7.856;2023-04-19T03:00:08;15.00;;;9.52;;
58898;SDS011;44680;48.342;7.856;2023-04-19T03:02:34;20.75;;;10.05;;
58898;SDS011;44680;48.342;7.856;2023-04-19T03:05:00;16.73;;;9.63;;
58898;SDS011;44680;48.342;7.856;2023-04-19T03:07:25;15.13;;;9.10;;
58898;SDS011;44680;48.342;7.856;2023-04-19T03:09:51;17.45;;;9.30;;
58898;SDS011;44680;48.342;7.856;2023-04-19T03:12:16;17.92;;;9.65;;
58898;SDS011;44680;48.342;7.856;2023-04-19T03:14:42;17.80;;;10.00;;
58898;SDS011;44680;48.342;7.856;2023-04-19T03:17:07;18.60;;;9.52;;
58898;SDS011;44680;48.342;7.856;2023-04-19T03:19:32;16.70;;;9.68;;
58898;SDS011;44680;48.342;7.856;2023-04-19T03:21:57;15.65;;;9.55;;
58898;SDS011;44680;48.342;7.856;2023-04-19T03:24:26;16.02;;;9.52;;
58898;SDS011;44680;48.342;7.856;2023-04-19T03:26:53;16.70;;;9.65;;
58898;SDS011;44680;48.342;7.856;2023-04-19T03:29:18;17.58;;;9.65;;
58898;SDS011;44680;48.342;7.856;2023-04-19T03:31:44;16.70;;;9.45;;
58898;SDS011;44680;48.342;7.856;2023-04-19T03:34:09;17.55;;;10.23;;
58898;SDS011;44680;48.342;7.856;2023-04-19T03:36:35;18.27;;;9.68;;
58898;SDS011;44680;48.342;7.856;2023-04-19T03:39:01;15.50;;;9.55;;
58898;SDS011;44680;48.342;7.856;2023-04-19T03:41:29;17.38;;;9.27;;
58898;SDS011;44680;48.342;7.856;2023-04-19T03:43:54;17.77;;;10.07;;
58898;SDS011;44680;48.342;7.856;2023-04-19T03:46:21;21.02;;;10.00;;
58898;SDS011;44680;48.342;7.856;2023-04-19T03:48:46;18.30;;;8.68;;
58898;SDS011;44680;48.342;7.856;2023-04-19T03:51:12;17.80;;;9.63;;
58898;SDS011;44680;48.342;7.856;2023-04-19T03:53:38;16.77;;;9.35;;
58898;SDS011;44680;48.342;7.856;2023-04-19T03:56:03;17.95;;;9.68;;
58898;SDS011;44680;48.342;7.856;2023-04-19T03:58:29;15.10;;;9.18;;
58898;SDS011;44680;48.342;7.856;2023-04-19T04:00:54;15.70;;;8.95;;
58898;SDS011;44680;48.342;7.856;2023-04-19T04:03:20;15.93;;;9.13;;
58898;SDS011;44680;48.342;7.856;2023-04-19T04:05:45;17.13;;;9.27;;
58898;SDS011;44680;48.342;7.856;2023-04-19T04:08:10;14.30;;;8.65;;
58898;SDS011;44680;48.342;7.856;2023-04-19T04:10:37;15.23;;;8.77;;
58898;SDS011;44680;48.342;7.856;2023-04-19T04:13:03;17.02;;;9.32;;
58898;SDS011;44680;48.342;7.856;2023-04-19T04:15:28;15.60;;;9.18;;
58898;SDS011;44680;48.342;7.856;2023-04-19T04:17:53;18.13;;;9.90;;
58898;SDS011;44680;48.342;7.856;2023-04-19T04:20:19;16.42;;;9.55;;
58898;SDS011;44680;48.342;7.856;2023-04-19T04:22:44;19.08;;;9.68;;
58898;SDS011;44680;48.342;7.856;2023-04-19T04:25:15;17.48;;;9.23;;
58898;SDS011;44680;48.342;7.856;2023-04-19T04:27:41;18.60;;;9.30;;
58898;SDS011;44680;48.342;7.856;2023-04-19T04:30:08;17.55;;;9.45;;
58898;SDS011;44680;48.342;7.856;2023-04-19T04:32:34;14.13;;;8.77;;
58898;SDS011;44680;48.342;7.856;2023-04-19T04:34:59;16.17;;;9.27;;
58898;SDS011;44680;48.342;7.856;2023-04-19T04:37:31;15.30;;;9.07;;
58898;SDS011;44680;48.342;7.856;2023-04-19T04:40:00;16.17;;;9.30;;
58898;SDS011;44680;48.342;7.856;2023-04-19T04:42:25;14.43;;;9.07;;
58898;SDS011;44680;48.342;7.856;2023-04-19T04:44:51;14.60;;;8.75;;
58898;SDS011;44680;48.342;7.856;2023-04-19T04:47:17;18.15;;;10.38;;
58898;SDS011;44680;48.342;7.856;2023-04-19T04:49:42;14.48;;;8.75;;
58898;SDS011;44680;48.342;7.856;2023-04-19T04:52:08;16.30;;;9.20;;
58898;SDS011;44680;48.342;7.856;2023-04-19T04:54:33;19.75;;;8.82;;
58898;SDS011;44680;48.342;7.856;2023-04-19T04:56:58;14.98;;;9.10;;
58898;SDS011;44680;48.342;7.856;2023-04-19T04:59:25;17.40;;;8.85;;
58898;SDS011;44680;48.342;7.856;2023-04-19T05:01:50;18.02;;;9.20;;
58898;SDS011;44680;48.342;7.856;2023-04-19T05:04:16;16.23;;;9.30;;
58898;SDS011;44680;48.342;7.856;2023-04-19T05:06:41;19.80;;;9.52;;
58898;SDS011;44680;48.342;7.856;2023-04-19T05:09:08;18.05;;;9.18;;
58898;SDS011;44680;48.342;7.856;2023-04-19T05:11:33;15.82;;;9.90;;
58898;SDS011;44680;48.342;7.856;2023-04-19T05:13:59;20.45;;;10.02;;
58898;SDS011;44680;48.342;7.856;2023-04-19T05:16:25;17.48;;;10.43;;
58898;SDS011;44680;48.342;7.856;2023-04-19T05:18:50;19.77;;;10.13;;
58898;SDS011;44680;48.342;7.856;2023-04-19T05:21:16;18.10;;;9.75;;
58898;SDS011;44680;48.342;7.856;2023-04-19T05:23:41;18.98;;;10.15;;
58898;SDS011;44680;48.342;7.856;2023-04-19T05:26:06;17.98;;;10.18;;
58898;SDS011;44680;48.342;7.856;2023-04-19T05:28:32;19.00;;;10.38;;
58898;SDS011;44680;48.342;7.856;2023-04-19T05:30:57;17.88;;;10.23;;
58898;SDS011;44680;48.342;7.856;2023-04-19T05:33:22;17.60;;;9.93;;
58898;SDS011;44680;48.342;7.856;2023-04-19T05:35:48;18.80;;;9.90;;
58898;SDS011;44680;48.342;7.856;2023-04-19T05:38:13;18.90;;;10.60;;
58898;SDS011;44680;48.342;7.856;2023-04-19T05:40:38;19.52;;;10.05;;
58898;SDS011;44680;48.342;7.856;2023-04-19T05:43:04;17.88;;;10.52;;
58898;SDS011;44680;48.342;7.856;2023-04-19T05:45:29;20.23;;;9.98;;
58898;SDS011;44680;48.342;7.856;2023-04-19T05:47:55;16.35;;;10.82;;
58898;SDS011;44680;48.342;7.856;2023-04-19T05:50:20;19.98;;;10.88;;
58898;SDS011;44680;48.342;7.856;2023-04-19T05:52:45;19.25;;;10.68;;
58898;SDS011;44680;48.342;7.856;2023-04-19T05:55:11;20.85;;;11.07;;
58898;SDS011;44680;48.342;7.856;2023-04-19T05:57:36;23.17;;;11.25;;
58898;SDS011;44680;48.342;7.856;2023-04-19T06:00:02;18.95;;;10.73;;
58898;SDS011;44680;48.342;7.856;2023-04-19T06:02:29;21.75;;;11.18;;
58898;SDS011;44680;48.342;7.856;2023-04-19T06:04:54;21.38;;;11.23;;
58898;SDS011;44680;48.342;7.856;2023-04-19T06:07:21;22.60;;;11.02;;
58898;SDS011;44680;48.342;7.856;2023-04-19T06:09:47;20.02;;;11.40;;
58898;SDS011;44680;48.342;7.856;2023-04-19T06:12:12;22.45;;;10.70;;
58898;SDS011;44680;48.342;7.856;2023-04-19T06:14:38;21.27;;;12.10;;
58898;SDS011;44680;48.342;7.856;2023-04-19T06:17:03;18.20;;;10.82;;
58898;SDS011;44680;48.342;7.856;2023-04-19T06:19:28;22.77;;;11.82;;
58898;SDS011;44680;48.342;7.856;2023-04-19T06:21:54;19.63;;;11.43;;
58898;SDS011;44680;48.342;7.856;2023-04-19T06:24:19;21.23;;;11.38;;
58898;SDS011;44680;48.342;7.856;2023-04-19T06:26:45;20.85;;;11.77;;
58898;SDS011;44680;48.342;7.856;2023-04-19T06:29:11;18.17;;;9.73;;
58898;SDS011;44680;48.342;7.856;2023-04-19T06:31:36;15.77;;;9.95;;
58898;SDS011;44680;48.342;7.856;2023-04-19T06:34:02;18.52;;;9.93;;
58898;SDS011;44680;48.342;7.856;2023-04-19T06:36:27;18.73;;;9.88;;
58898;SDS011;44680;48.342;7.856;2023-04-19T06:38:53;17.15;;;9.43;;
58898;SDS011;44680;48.342;7.856;2023-04-19T06:41:18;17.13;;;9.68;;
58898;SDS011;44680;48.342;7.856;2023-04-19T06:43:43;17.45;;;9.95;;
58898;SDS011;44680;48.342;7.856;2023-04-19T06:46:09;15.35;;;9.48;;
58898;SDS011;44680;48.342;7.856;2023-04-19T06:48:34;16.90;;;10.15;;
58898;SDS011;44680;48.342;7.856;2023-04-19T06:51:00;15.02;;;9.27;;
58898;SDS011;44680;48.342;7.856;2023-04-19T06:53:25;16.77;;;10.23;;
58898;SDS011;44680;48.342;7.856;2023-04-19T06:55:58;16.48;;;9.45;;
58898;SDS011;44680;48.342;7.856;2023-04-19T06:58:28;16.20;;;10.25;;
58898;SDS011;44680;48.342;7.856;2023-04-19T07:00:53;16.45;;;10.07;;
58898;SDS011;44680;48.342;7.856;2023-04-19T07:03:19;19.10;;;10.52;;
58898;SDS011;44680;48.342;7.856;2023-04-19T07:05:45;18.73;;;11.05;;
58898;SDS011;44680;48.342;7.856;2023-04-19T07:08:11;17.38;;;10.25;;
58898;SDS011;44680;48.342;7.856;2023-04-19T07:10:36;18.00;;;10.48;;
58898;SDS011;44680;48.342;7.856;2023-04-19T07:13:01;18.45;;;10.60;;
58898;SDS011;44680;48.342;7.856;2023-04-19T07:15:26;17.33;;;10.43;;
58898;SDS011;44680;48.342;7.856;2023-04-19T07:17:52;20.52;;;10.88;;
58898;SDS011;44680;48.342;7.856;2023-04-19T07:20:17;19.77;;;11.35;;
58898;SDS011;44680;48.342;7.856;2023-04-19T07:22:42;20.55;;;11.75;;
58898;SDS011;44680;48.342;7.856;2023-04-19T07:25:08;18.92;;;11.18;;
58898;SDS011;44680;48.342;7.856;2023-04-19T07:27:33;21.23;;;11.38;;
58898;SDS011;44680;48.342;7.856;2023-04-19T07:29:59;20.90;;;10.70;;
58898;SDS011;44680;48.342;7.856;2023-04-19T07:32:24;20.42;;;10.80;;
58898;SDS011;44680;48.342;7.856;2023-04-19T07:34:49;20.05;;;11.20;;
58898;SDS011;44680;48.342;7.856;2023-04-19T07:37:15;22.90;;;11.57;;
58898;SDS011;44680;48.342;7.856;2023-04-19T07:39:41;20.20;;;11.20;;
58898;SDS011;44680;48.342;7.856;2023-04-19T07:42:06;21.80;;;11.20;;
58898;SDS011;44680;48.342;7.856;2023-04-19T07:44:31;19.70;;;11.30;;
58898;SDS011;44680;48.342;7.856;2023-04-19T07:46:57;21.10;;;12.23;;
58898;SDS011;44680;48.342;7.856;2023-04-19T07:49:22;23.70;;;12.27;;
58898;SDS011;44680;48.342;7.856;2023-04-19T07:51:47;22.75;;;12.23;;
58898;SDS011;44680;48.342;7.856;2023-04-19T07:54:13;21.05;;;11.60;;
58898;SDS011;44680;48.342;7.856;2023-04-19T07:56:40;21.92;;;11.45;;
58898;SDS011;44680;48.342;7.856;2023-04-19T07:59:05;21.10;;;11.57;;
58898;SDS011;44680;48.342;7.856;2023-04-19T08:01:31;22.80;;;11.07;;
58898;SDS011;44680;48.342;7.856;2023-04-19T08:03:56;21.80;;;12.05;;
58898;SDS011;44680;48.342;7.856;2023-04-19T08:06:21;22.40;;;12.23;;
58898;SDS011;44680;48.342;7.856;2023-04-19T08:08:47;22.95;;;13.02;;
58898;SDS011;44680;48.342;7.856;2023-04-19T08:11:12;24.75;;;13.48;;
58898;SDS011;44680;48.342;7.856;2023-04-19T08:13:38;25.73;;;14.45;;
58898;SDS011;44680;48.342;7.856;2023-04-19T08:16:03;23.35;;;12.95;;
58898;SDS011;44680;48.342;7.856;2023-04-19T08:18:30;20.27;;;11.93;;
58898;SDS011;44680;48.342;7.856;2023-04-19T08:20:55;23.20;;;12.07;;
58898;SDS011;44680;48.342;7.856;2023-04-19T08:23:21;24.67;;;13.90;;
58898;SDS011;44680;48.342;7.856;2023-04-19T08:25:46;26.73;;;14.95;;
58898;SDS011;44680;48.342;7.856;2023-04-19T08:28:12;27.58;;;14.52;;
58898;SDS011;44680;48.342;7.856;2023-04-19T08:30:37;25.83;;;14.35;;
58898;SDS011;44680;48.342;7.856;2023-04-19T08:33:02;26.60;;;13.80;;
58898;SDS011;44680;48.342;7.856;2023-04-19T08:35:28;28.98;;;15.02;;
58898;SDS011;44680;48.342;7.856;2023-04-19T08:37:53;26.02;;;13.98;;
58898;SDS011;44680;48.342;7.856;2023-04-19T08:40:19;26.55;;;14.30;;
58898;SDS011;44680;48.342;7.856;2023-04-19T08:42:44;26.45;;;14.40;;
58898;SDS011;44680;48.342;7.856;2023-04-19T08:45:09;24.52;;;13.45;;
58898;SDS011;44680;48.342;7.856;2023-04-19T08:47:37;27.20;;;14.43;;
58898;SDS011;44680;48.342;7.856;2023-04-19T08:50:04;25.83;;;14.05;;
58898;SDS011;44680;48.342;7.856;2023-04-19T08:52:34;26.92;;;14.68;;
58898;SDS011;44680;48.342;7.856;2023-04-19T08:55:01;27.30;;;14.70;;
58898;SDS011;44680;48.342;7.856;2023-04-19T08:57:29;27.08;;;15.10;;
58898;SDS011;44680;48.342;7.856;2023-04-19T08:59:57;24.90;;;13.65;;
58898;SDS011;44680;48.342;7.856;2023-04-19T09:02:23;27.42;;;14.82;;
58898;SDS011;44680;48.342;7.856;2023-04-19T09:04:48;25.58;;;14.75;;
58898;SDS011;44680;48.342;7.856;2023-04-19T09:07:26;27.67;;;14.93;;
58898;SDS011;44680;48.342;7.856;2023-04-19T09:10:11;25.65;;;14.90;;
58898;SDS011;44680;48.342;7.856;2023-04-19T09:12:40;26.95;;;14.70;;
58898;SDS011;44680;48.342;7.856;2023-04-19T09:15:05;26.17;;;14.48;;
58898;SDS011;44680;48.342;7.856;2023-04-19T09:17:33;25.27;;;14.40;;
58898;SDS011;44680;48.342;7.856;2023-04-19T09:19:59;25.25;;;14.10;;
58898;SDS011;44680;48.342;7.856;2023-04-19T09:22:25;25.75;;;14.35;;
58898;SDS011;44680;48.342;7.856;2023-04-19T09:24:51;28.40;;;15.02;;
58898;SDS011;44680;48.342;7.856;2023-04-19T09:27:27;26.27;;;14.60;;
58898;SDS011;44680;48.342;7.856;2023-04-19T09:29:54;25.08;;;13.98;;
58898;SDS011;44680;48.342;7.856;2023-04-19T09:32:23;25.48;;;13.90;;
58898;SDS011;44680;48.342;7.856;2023-04-19T09:34:50;29.88;;;15.13;;
58898;SDS011;44680;48.342;7.856;2023-04-19T09:37:24;27.48;;;14.57;;
58898;SDS011;44680;48.342;7.856;2023-04-19T09:39:51;26.20;;;13.70;;
58898;SDS011;44680;48.342;7.856;2023-04-19T09:42:16;24.90;;;13.57;;
58898;SDS011;44680;48.342;7.856;2023-04-19T09:44:56;24.10;;;13.38;;
58898;SDS011;44680;48.342;7.856;2023-04-19T09:47:22;24.95;;;13.20;;
58898;SDS011;44680;48.342;7.856;2023-04-19T09:50:02;22.08;;;12.75;;
58898;SDS011;44680;48.342;7.856;2023-04-19T09:52:31;26.67;;;14.10;;
58898;SDS011;44680;48.342;7.856;2023-04-19T09:54:58;22.42;;;13.00;;
58898;SDS011;44680;48.342;7.856;2023-04-19T09:57:25;23.15;;;11.90;;
58898;SDS011;44680;48.342;7.856;2023-04-19T09:59:50;22.17;;;12.02;;
58898;SDS011;44680;48.342;7.856;2023-04-19T10:02:15;25.80;;;13.35;;
58898;SDS011;44680;48.342;7.856;2023-04-19T10:04:41;22.42;;;12.38;;
58898;SDS011;44680;48.342;7.856;2023-04-19T10:07:07;23.02;;;12.90;;
58898;SDS011;44680;48.342;7.856;2023-04-19T10:09:32;21.38;;;11.82;;
58898;SDS011;44680;48.342;7.856;2023-04-19T10:11:59;21.73;;;11.88;;
58898;SDS011;44680;48.342;7.856;2023-04-19T10:14:25;20.60;;;11.02;;
58898;SDS011;44680;48.342;7.856;2023-04-19T10:16:53;21.42;;;12.45;;
58898;SDS011;44680;48.342;7.856;2023-04-19T10:19:21;16.95;;;10.85;;
58898;SDS011;44680;48.342;7.856;2023-04-19T10:21:49;19.70;;;11.15;;
58898;SDS011;44680;48.342;7.856;2023-04-19T10:24:15;17.23;;;10.23;;
58898;SDS011;44680;48.342;7.856;2023-04-19T10:32:15;18.90;;;10.32;;
58898;SDS011;44680;48.342;7.856;2023-04-19T10:34:40;19.40;;;11.00;;
58898;SDS011;44680;48.342;7.856;2023-04-19T10:37:09;21.35;;;11.32;;
58898;SDS011;44680;48.342;7.856;2023-04-19T10:39:38;16.55;;;9.82;;
58898;SDS011;44680;48.342;7.856;2023-04-19T10:42:04;17.65;;;9.70;;
58898;SDS011;44680;48.342;7.856;2023-04-19T10:44:30;14.93;;;9.43;;
58898;SDS011;44680;48.342;7.856;2023-04-19T10:46:55;17.60;;;9.85;;
58898;SDS011;44680;48.342;7.856;2023-04-19T10:49:22;20.48;;;10.98;;
58898;SDS011;44680;48.342;7.856;2023-04-19T10:51:51;21.13;;;10.65;;
58898;SDS011;44680;48.342;7.856;2023-04-19T10:54:28;18.88;;;10.50;;
58898;SDS011;44680;48.342;7.856;2023-04-19T10:57:07;19.75;;;10.73;;
58898;SDS011;44680;48.342;7.856;2023-04-19T10:59:34;18.90;;;10.65;;
58898;SDS011;44680;48.342;7.856;2023-04-19T11:02:01;20.30;;;11.48;;
58898;SDS011;44680;48.342;7.856;2023-04-19T11:07:17;20.88;;;11.57;;
58898;SDS011;44680;48.342;7.856;2023-04-19T11:09:46;23.15;;;12.35;;
58898;SDS011;44680;48.342;7.856;2023-04-19T11:12:16;20.58;;;11.50;;
58898;SDS011;44680;48.342;7.856;2023-04-19T11:14:44;21.58;;;11.90;;
58898;SDS011;44680;48.342;7.856;2023-04-19T11:17:23;20.58;;;10.98;;
58898;SDS011;44680;48.342;7.856;2023-04-19T11:19:51;19.08;;;10.75;;
58898;SDS011;44680;48.342;7.856;2023-04-19T11:22:40;20.23;;;11.07;;
58898;SDS011;44680;48.342;7.856;2023-04-19T11:25:10;22.00;;;11.52;;
58898;SDS011;44680;48.342;7.856;2023-04-19T11:27:41;18.63;;;10.77;;
58898;SDS011;44680;48.342;7.856;2023-04-19T11:30:08;21.02;;;11.13;;
58898;SDS011;44680;48.342;7.856;2023-04-19T11:32:36;17.13;;;9.85;;
58898;SDS011;44680;48.342;7.856;2023-04-19T11:35:07;20.55;;;10.50;;
58898;SDS011;44680;48.342;7.856;2023-04-19T11:37:34;18.92;;;10.60;;
58898;SDS011;44680;48.342;7.856;2023-04-19T11:40:00;17.85;;;10.38;;
58898;SDS011;44680;48.342;7.856;2023-04-19T11:42:25;15.95;;;9.38;;
58898;SDS011;44680;48.342;7.856;2023-04-19T11:44:51;18.25;;;10.18;;
58898;SDS011;44680;48.342;7.856;2023-04-19T11:47:17;17.65;;;10.15;;
58898;SDS011;44680;48.342;7.856;2023-04-19T11:49:43;17.20;;;9.68;;
58898;SDS011;44680;48.342;7.856;2023-04-19T11:52:08;19.02;;;10.13;;
58898;SDS011;44680;48.342;7.856;2023-04-19T11:54:33;15.93;;;9.63;;
58898;SDS011;44680;48.342;7.856;2023-04-19T11:57:02;15.98;;;9.65;;
58898;SDS011;44680;48.342;7.856;2023-04-19T11:59:29;17.42;;;9.20;;
58898;SDS011;44680;48.342;7.856;2023-04-19T12:02:08;15.75;;;9.88;;
58898;SDS011;44680;48.342;7.856;2023-04-19T12:04:35;17.48;;;9.75;;
58898;SDS011;44680;48.342;7.856;2023-04-19T12:07:01;15.98;;;9.35;;
58898;SDS011;44680;48.342;7.856;2023-04-19T12:09:27;18.92;;;9.75;;
58898;SDS011;44680;48.342;7.856;2023-04-19T12:11:53;16.17;;;9.77;;
58898;SDS011;44680;48.342;7.856;2023-04-19T12:14:19;15.90;;;9.10;;
58898;SDS011;44680;48.342;7.856;2023-04-19T12:17:05;15.77;;;9.35;;
58898;SDS011;44680;48.342;7.856;2023-04-19T12:19:41;13.43;;;8.45;;
58898;SDS011;44680;48.342;7.856;2023-04-19T12:22:18;12.85;;;8.75;;
58898;SDS011;44680;48.342;7.856;2023-04-19T12:24:50;11.27;;;8.07;;
58898;SDS011;44680;48.342;7.856;2023-04-19T12:27:17;11.25;;;7.20;;
58898;SDS011;44680;48.342;7.856;2023-04-19T12:29:42;13.00;;;7.63;;
58898;SDS011;44680;48.342;7.856;2023-04-19T12:32:09;12.57;;;8.07;;
58898;SDS011;44680;48.342;7.856;2023-04-19T12:34:34;12.80;;;7.18;;
58898;SDS011;44680;48.342;7.856;2023-04-19T12:37:00;12.38;;;7.80;;
58898;SDS011;44680;48.342;7.856;2023-04-19T12:39:27;13.02;;;7.85;;
58898;SDS011;44680;48.342;7.856;2023-04-19T12:41:52;13.05;;;8.25;;
58898;SDS011;44680;48.342;7.856;2023-04-19T12:44:18;14.00;;;8.50;;
58898;SDS011;44680;48.342;7.856;2023-04-19T12:46:43;15.98;;;8.55;;
58898;SDS011;44680;48.342;7.856;2023-04-19T12:49:09;15.35;;;8.88;;
58898;SDS011;44680;48.342;7.856;2023-04-19T12:51:34;15.55;;;8.30;;
58898;SDS011;44680;48.342;7.856;2023-04-19T12:54:00;16.63;;;8.38;;
58898;SDS011;44680;48.342;7.856;2023-04-19T12:56:26;15.40;;;8.75;;
58898;SDS011;44680;48.342;7.856;2023-04-19T12:58:52;19.52;;;9.68;;
58898;SDS011;44680;48.342;7.856;2023-04-19T13:01:31;16.38;;;9.35;;
58898;SDS011;44680;48.342;7.856;2023-04-19T13:04:19;16.83;;;9.27;;
58898;SDS011;44680;48.342;7.856;2023-04-19T13:06:44;18.95;;;10.20;;
58898;SDS011;44680;48.342;7.856;2023-04-19T13:09:10;17.77;;;10.10;;
58898;SDS011;44680;48.342;7.856;2023-04-19T13:11:37;15.00;;;8.80;;
58898;SDS011;44680;48.342;7.856;2023-04-19T13:14:03;17.77;;;9.95;;
58898;SDS011;44680;48.342;7.856;2023-04-19T13:16:31;17.48;;;9.05;;
58898;SDS011;44680;48.342;7.856;2023-04-19T13:19:28;17.65;;;10.20;;
58898;SDS011;44680;48.342;7.856;2023-04-19T13:22:00;18.80;;;10.50;;
58898;SDS011;44680;48.342;7.856;2023-04-19T13:24:27;17.70;;;9.52;;
58898;SDS011;44680;48.342;7.856;2023-04-19T13:29:50;16.65;;;9.02;;
58898;SDS011;44680;48.342;7.856;2023-04-19T13:32:20;15.77;;;8.77;;
58898;SDS011;44680;48.342;7.856;2023-04-19T13:34:49;16.45;;;9.25;;
58898;SDS011;44680;48.342;7.856;2023-04-19T13:37:20;16.15;;;8.70;;
58898;SDS011;44680;48.342;7.856;2023-04-19T13:39:45;16.88;;;9.10;;
58898;SDS011;44680;48.342;7.856;2023-04-19T13:42:11;14.13;;;8.90;;
58898;SDS011;44680;48.342;7.856;2023-04-19T13:44:37;15.65;;;8.82;;
58898;SDS011;44680;48.342;7.856;2023-04-19T13:47:03;15.82;;;9.13;;
58898;SDS011;44680;48.342;7.856;2023-04-19T13:49:28;15.18;;;9.05;;
58898;SDS011;44680;48.342;7.856;2023-04-19T13:51:53;13.95;;;8.75;;
58898;SDS011;44680;48.342;7.856;2023-04-19T13:54:25;14.77;;;8.30;;
58898;SDS011;44680;48.342;7.856;2023-04-19T13:56:50;14.52;;;8.60;;
58898;SDS011;44680;48.342;7.856;2023-04-19T13:59:15;14.63;;;7.97;;
58898;SDS011;44680;48.342;7.856;2023-04-19T14:01:44;14.43;;;8.50;;
58898;SDS011;44680;48.342;7.856;2023-04-19T14:04:09;13.32;;;7.90;;
58898;SDS011;44680;48.342;7.856;2023-04-19T14:06:34;15.98;;;8.35;;
58898;SDS011;44680;48.342;7.856;2023-04-19T14:08:59;17.00;;;9.00;;
58898;SDS011;44680;48.342;7.856;2023-04-19T14:11:25;18.67;;;10.60;;
58898;SDS011;44680;48.342;7.856;2023-04-19T14:13:51;15.50;;;9.60;;
58898;SDS011;44680;48.342;7.856;2023-04-19T14:16:19;17.02;;;10.20;;
58898;SDS011;44680;48.342;7.856;2023-04-19T14:18:45;20.02;;;10.45;;
58898;SDS011;44680;48.342;7.856;2023-04-19T14:21:10;17.58;;;9.77;;
58898;SDS011;44680;48.342;7.856;2023-04-19T14:23:37;15.82;;;9.15;;
58898;SDS011;44680;48.342;7.856;2023-04-19T14:26:02;19.90;;;9.80;;
58898;SDS011;44680;48.342;7.856;2023-04-19T14:28:28;18.10;;;10.43;;
58898;SDS011;44680;48.342;7.856;2023-04-19T14:30:53;18.02;;;10.25;;
58898;SDS011;44680;48.342;7.856;2023-04-19T14:33:18;15.07;;;9.20;;
58898;SDS011;44680;48.342;7.856;2023-04-19T14:35:44;16.60;;;9.63;;